sensor_id;sensor_type;location;lat;lon;timestamp;P1;durP1;ratioP1;P2;durP2;ratioP2
54557;SDS011;40452;50.080;20.040;2022-07-29T03:31:09;6.75;;;1.90;;
54557;SDS011;40452;50.080;20.040;2022-07-29T03:33:35;5.22;;;1.90;;
54557;SDS011;40452;50.080;20.040;2022-07-29T03:36:00;3.97;;;1.58;;
54557;SDS011;40452;50.080;20.040;2022-07-29T03:38:27;2.70;;;1.88;;
54557;SDS011;40452;50.080;20.040;2022-07-29T03:40:58;5.18;;;1.80;;
54557;SDS011;40452;50.080;20.040;2022-07-29T03:43:29;8.68;;;2.13;;
54557;SDS011;40452;50.080;20.040;2022-07-29T03:45:58;4.72;;;2.13;;
54557;SDS011;40452;50.080;20.040;2022-07-29T03:48:25;5.97;;;2.20;;
54557;SDS011;40452;50.080;20.040;2022-07-29T03:50:52;4.88;;;1.92;;
54557;SDS011;40452;50.080;20.040;2022-07-29T03:53:17;3.10;;;1.98;;
54557;SDS011;40452;50.080;20.040;2022-07-29T03:55:44;7.18;;;1.95;;
54557;SDS011;40452;50.080;20.040;2022-07-29T03:58:13;3.65;;;1.67;;
54557;SDS011;40452;50.080;20.040;2022-07-29T04:00:40;3.55;;;2.03;;
54557;SDS011;40452;50.080;20.040;2022-07-29T04:03:07;6.78;;;2.20;;
54557;SDS011;40452;50.080;20.040;2022-07-29T04:05:34;12.13;;;2.40;;
54557;SDS011;40452;50.080;20.040;2022-07-29T04:07:59;4.97;;;2.10;;
54557;SDS011;40452;50.080;20.040;2022-07-29T04:10:25;3.53;;;2.08;;
54557;SDS011;40452;50.080;20.040;2022-07-29T04:12:51;4.85;;;1.83;;
54557;SDS011;40452;50.080;20.040;2022-07-29T04:15:17;9.13;;;2.10;;
54557;SDS011;40452;50.080;20.040;2022-07-29T04:17:43;3.80;;;1.90;;
54557;SDS011;40452;50.080;20.040;2022-07-29T04:20:09;4.25;;;1.95;;
54557;SDS011;40452;50.080;20.040;2022-07-29T04:22:38;7.88;;;2.13;;
54557;SDS011;40452;50.080;20.040;2022-07-29T04:25:04;4.40;;;1.80;;
54557;SDS011;40452;50.080;20.040;2022-07-29T04:27:30;7.15;;;2.28;;
54557;SDS011;40452;50.080;20.040;2022-07-29T04:29:55;5.22;;;2.17;;
54557;SDS011;40452;50.080;20.040;2022-07-29T04:32:21;7.63;;;2.03;;
54557;SDS011;40452;50.080;20.040;2022-07-29T04:34:47;3.50;;;1.85;;
54557;SDS011;40452;50.080;20.040;2022-07-29T04:37:12;7.78;;;1.70;;
54557;SDS011;40452;50.080;20.040;2022-07-29T04:39:38;5.20;;;1.98;;
54557;SDS011;40452;50.080;20.040;2022-07-29T04:42:04;3.20;;;1.92;;
54557;SDS011;40452;50.080;20.040;2022-07-29T04:44:29;2.38;;;1.63;;
54557;SDS011;40452;50.080;20.040;2022-07-29T04:46:55;4.43;;;1.67;;
54557;SDS011;40452;50.080;20.040;2022-07-29T04:49:21;6.47;;;2.17;;
54557;SDS011;40452;50.080;20.040;2022-07-29T04:51:47;6.03;;;2.03;;
54557;SDS011;40452;50.080;20.040;2022-07-29T04:54:12;4.35;;;1.80;;
54557;SDS011;40452;50.080;20.040;2022-07-29T04:56:38;9.50;;;1.92;;
54557;SDS011;40452;50.080;20.040;2022-07-29T04:59:03;4.85;;;1.80;;
54557;SDS011;40452;50.080;20.040;2022-07-29T05:01:29;3.33;;;1.60;;
54557;SDS011;40452;50.080;20.040;2022-07-29T05:03:54;3.33;;;1.88;;
54557;SDS011;40452;50.080;20.040;2022-07-29T05:06:20;5.13;;;1.73;;
54557;SDS011;40452;50.080;20.040;2022-07-29T05:08:45;4.63;;;1.73;;
54557;SDS011;40452;50.080;20.040;2022-07-29T05:11:11;10.90;;;2.08;;
54557;SDS011;40452;50.080;20.040;2022-07-29T05:13:36;4.43;;;1.90;;
54557;SDS011;40452;50.080;20.040;2022-07-29T05:16:02;14.48;;;2.45;;
54557;SDS011;40452;50.080;20.040;2022-07-29T05:18:28;6.15;;;2.08;;
54557;SDS011;40452;50.080;20.040;2022-07-29T05:20:53;3.08;;;1.85;;
54557;SDS011;40452;50.080;20.040;2022-07-29T05:23:19;4.53;;;2.33;;
54557;SDS011;40452;50.080;20.040;2022-07-29T05:25:44;6.30;;;2.00;;
54557;SDS011;40452;50.080;20.040;2022-07-29T05:28:11;3.58;;;1.77;;
54557;SDS011;40452;50.080;20.040;2022-07-29T05:30:36;9.63;;;1.80;;
54557;SDS011;40452;50.080;20.040;2022-07-29T05:33:02;6.70;;;1.80;;
54557;SDS011;40452;50.080;20.040;2022-07-29T05:35:28;4.65;;;1.73;;
54557;SDS011;40452;50.080;20.040;2022-07-29T05:37:53;4.93;;;1.92;;
54557;SDS011;40452;50.080;20.040;2022-07-29T05:40:19;7.25;;;1.80;;
54557;SDS011;40452;50.080;20.040;2022-07-29T05:42:45;6.63;;;1.80;;
54557;SDS011;40452;50.080;20.040;2022-07-29T13:56:26;10.60;;;3.60;;
54557;SDS011;40452;50.080;20.040;2022-07-29T13:58:51;5.78;;;3.20;;
54557;SDS011;40452;50.080;20.040;2022-07-29T14:01:17;4.80;;;3.35;;
54557;SDS011;40452;50.080;20.040;2022-07-29T14:03:42;5.72;;;3.30;;
54557;SDS011;40452;50.080;20.040;2022-07-29T14:06:08;4.80;;;3.10;;
54557;SDS011;40452;50.080;20.040;2022-07-29T14:08:33;4.97;;;2.80;;
54557;SDS011;40452;50.080;20.040;2022-07-29T14:10:59;8.40;;;3.40;;
54557;SDS011;40452;50.080;20.040;2022-07-29T14:13:24;7.60;;;3.08;;
54557;SDS011;40452;50.080;20.040;2022-07-29T14:15:50;6.13;;;3.00;;
54557;SDS011;40452;50.080;20.040;2022-07-29T14:18:16;4.38;;;3.10;;
54557;SDS011;40452;50.080;20.040;2022-07-29T14:20:41;6.60;;;2.88;;
54557;SDS011;40452;50.080;20.040;2022-07-29T14:23:07;6.22;;;2.88;;
54557;SDS011;40452;50.080;20.040;2022-07-29T14:25:32;8.25;;;3.10;;
54557;SDS011;40452;50.080;20.040;2022-07-29T14:27:58;5.85;;;2.92;;
54557;SDS011;40452;50.080;20.040;2022-07-29T14:30:23;7.13;;;3.08;;
54557;SDS011;40452;50.080;20.040;2022-07-29T14:32:49;5.90;;;3.10;;
54557;SDS011;40452;50.080;20.040;2022-07-29T14:35:15;5.60;;;2.88;;
54557;SDS011;40452;50.080;20.040;2022-07-29T14:37:40;5.65;;;2.80;;
54557;SDS011;40452;50.080;20.040;2022-07-29T14:40:06;5.47;;;3.30;;
54557;SDS011;40452;50.080;20.040;2022-07-29T14:42:33;10.68;;;2.80;;
54557;SDS011;40452;50.080;20.040;2022-07-29T14:44:59;5.57;;;2.95;;
54557;SDS011;40452;50.080;20.040;2022-07-29T14:47:25;6.18;;;2.90;;
54557;SDS011;40452;50.080;20.040;2022-07-29T14:49:50;7.15;;;2.63;;
54557;SDS011;40452;50.080;20.040;2022-07-29T14:52:16;7.72;;;2.80;;
54557;SDS011;40452;50.080;20.040;2022-07-29T14:54:41;4.95;;;2.80;;
54557;SDS011;40452;50.080;20.040;2022-07-29T14:57:07;4.88;;;2.90;;
54557;SDS011;40452;50.080;20.040;2022-07-29T14:59:33;7.97;;;2.50;;
54557;SDS011;40452;50.080;20.040;2022-07-29T15:01:59;8.88;;;2.75;;
54557;SDS011;40452;50.080;20.040;2022-07-29T15:04:24;6.40;;;2.58;;
54557;SDS011;40452;50.080;20.040;2022-07-29T15:06:50;5.20;;;2.78;;
54557;SDS011;40452;50.080;20.040;2022-07-29T15:09:16;6.63;;;2.78;;
54557;SDS011;40452;50.080;20.040;2022-07-29T15:11:42;5.97;;;2.63;;
54557;SDS011;40452;50.080;20.040;2022-07-29T15:14:08;6.38;;;2.80;;
54557;SDS011;40452;50.080;20.040;2022-07-29T15:16:38;3.92;;;2.72;;
54557;SDS011;40452;50.080;20.040;2022-07-29T15:19:04;6.10;;;2.53;;
54557;SDS011;40452;50.080;20.040;2022-07-29T19:59:34;5.60;;;3.35;;
54557;SDS011;40452;50.080;20.040;2022-07-29T20:02:00;3.92;;;3.33;;
54557;SDS011;40452;50.080;20.040;2022-07-29T20:04:25;6.78;;;3.03;;
54557;SDS011;40452;50.080;20.040;2022-07-29T20:06:51;4.63;;;3.47;;
54557;SDS011;40452;50.080;20.040;2022-07-29T20:09:20;4.93;;;3.30;;
54557;SDS011;40452;50.080;20.040;2022-07-29T20:11:45;3.88;;;3.35;;
54557;SDS011;40452;50.080;20.040;2022-07-29T20:14:11;4.18;;;3.05;;
54557;SDS011;40452;50.080;20.040;2022-07-29T20:16:36;5.15;;;3.28;;
54557;SDS011;40452;50.080;20.040;2022-07-29T20:19:02;4.32;;;3.20;;
54557;SDS011;40452;50.080;20.040;2022-07-29T20:21:27;4.63;;;3.22;;
54557;SDS011;40452;50.080;20.040;2022-07-29T20:23:53;5.50;;;3.50;;
54557;SDS011;40452;50.080;20.040;2022-07-29T20:26:20;4.82;;;3.50;;
54557;SDS011;40452;50.080;20.040;2022-07-29T20:28:46;5.15;;;3.47;;
54557;SDS011;40452;50.080;20.040;2022-07-29T20:31:11;5.30;;;3.45;;
54557;SDS011;40452;50.080;20.040;2022-07-29T20:33:39;4.63;;;3.60;;
54557;SDS011;40452;50.080;20.040;2022-07-29T20:36:05;5.63;;;3.60;;
54557;SDS011;40452;50.080;20.040;2022-07-29T20:38:30;6.80;;;3.50;;
54557;SDS011;40452;50.080;20.040;2022-07-29T20:40:56;7.47;;;3.88;;
54557;SDS011;40452;50.080;20.040;2022-07-29T20:43:23;5.60;;;3.80;;
54557;SDS011;40452;50.080;20.040;2022-07-29T20:45:49;6.97;;;4.10;;
54557;SDS011;40452;50.080;20.040;2022-07-29T20:48:15;7.82;;;3.58;;
54557;SDS011;40452;50.080;20.040;2022-07-29T20:50:40;5.72;;;3.78;;
54557;SDS011;40452;50.080;20.040;2022-07-29T20:53:07;7.43;;;4.05;;
54557;SDS011;40452;50.080;20.040;2022-07-29T20:55:33;6.85;;;3.95;;
54557;SDS011;40452;50.080;20.040;2022-07-29T20:57:58;6.60;;;4.32;;
54557;SDS011;40452;50.080;20.040;2022-07-29T21:00:24;8.38;;;4.25;;
54557;SDS011;40452;50.080;20.040;2022-07-29T21:02:49;7.72;;;4.20;;
54557;SDS011;40452;50.080;20.040;2022-07-29T21:05:15;9.95;;;4.03;;
54557;SDS011;40452;50.080;20.040;2022-07-29T21:07:41;6.22;;;4.03;;
54557;SDS011;40452;50.080;20.040;2022-07-29T21:10:06;7.55;;;4.43;;
54557;SDS011;40452;50.080;20.040;2022-07-29T21:12:32;7.10;;;4.20;;
54557;SDS011;40452;50.080;20.040;2022-07-29T21:14:58;6.22;;;3.85;;
54557;SDS011;40452;50.080;20.040;2022-07-29T21:17:24;5.22;;;4.10;;
54557;SDS011;40452;50.080;20.040;2022-07-29T21:19:49;7.82;;;4.30;;
54557;SDS011;40452;50.080;20.040;2022-07-29T21:22:17;7.80;;;4.53;;
54557;SDS011;40452;50.080;20.040;2022-07-29T21:24:45;6.38;;;4.32;;
54557;SDS011;40452;50.080;20.040;2022-07-29T21:27:11;5.30;;;4.15;;
54557;SDS011;40452;50.080;20.040;2022-07-29T21:29:55;6.45;;;4.03;;
54557;SDS011;40452;50.080;20.040;2022-07-29T21:32:21;4.75;;;3.50;;
54557;SDS011;40452;50.080;20.040;2022-07-29T21:34:46;8.23;;;3.88;;
54557;SDS011;40452;50.080;20.040;2022-07-29T21:37:12;5.65;;;3.50;;
54557;SDS011;40452;50.080;20.040;2022-07-29T21:39:37;5.03;;;3.30;;
54557;SDS011;40452;50.080;20.040;2022-07-29T21:42:03;5.32;;;3.28;;
54557;SDS011;40452;50.080;20.040;2022-07-29T21:44:31;4.82;;;3.08;;
54557;SDS011;40452;50.080;20.040;2022-07-29T21:46:56;4.20;;;2.72;;
54557;SDS011;40452;50.080;20.040;2022-07-29T21:49:22;5.07;;;2.83;;
54557;SDS011;40452;50.080;20.040;2022-07-29T21:51:47;4.10;;;3.05;;
54557;SDS011;40452;50.080;20.040;2022-07-29T21:54:13;5.07;;;2.92;;
54557;SDS011;40452;50.080;20.040;2022-07-29T21:56:38;5.13;;;3.30;;
54557;SDS011;40452;50.080;20.040;2022-07-29T21:59:04;7.03;;;3.13;;
54557;SDS011;40452;50.080;20.040;2022-07-29T22:01:29;8.48;;;3.15;;
54557;SDS011;40452;50.080;20.040;2022-07-29T22:03:55;5.55;;;2.70;;
54557;SDS011;40452;50.080;20.040;2022-07-29T22:06:20;4.22;;;2.47;;
54557;SDS011;40452;50.080;20.040;2022-07-29T22:08:46;4.30;;;2.60;;
54557;SDS011;40452;50.080;20.040;2022-07-29T22:11:11;4.38;;;2.80;;
54557;SDS011;40452;50.080;20.040;2022-07-29T22:13:37;5.85;;;2.90;;
54557;SDS011;40452;50.080;20.040;2022-07-29T22:16:03;5.25;;;2.92;;
54557;SDS011;40452;50.080;20.040;2022-07-29T22:18:28;4.88;;;2.45;;
54557;SDS011;40452;50.080;20.040;2022-07-29T22:20:54;4.70;;;2.75;;
54557;SDS011;40452;50.080;20.040;2022-07-29T22:23:19;5.32;;;2.80;;
54557;SDS011;40452;50.080;20.040;2022-07-29T22:25:45;3.28;;;2.65;;
54557;SDS011;40452;50.080;20.040;2022-07-29T22:28:11;4.07;;;2.55;;
54557;SDS011;40452;50.080;20.040;2022-07-29T22:30:36;3.75;;;2.70;;
54557;SDS011;40452;50.080;20.040;2022-07-29T22:33:02;3.60;;;2.67;;
54557;SDS011;40452;50.080;20.040;2022-07-29T22:35:27;4.40;;;2.80;;
54557;SDS011;40452;50.080;20.040;2022-07-29T22:37:53;4.53;;;2.60;;
54557;SDS011;40452;50.080;20.040;2022-07-29T22:40:18;3.63;;;2.40;;
54557;SDS011;40452;50.080;20.040;2022-07-29T22:42:44;3.40;;;2.50;;
54557;SDS011;40452;50.080;20.040;2022-07-29T22:45:09;3.72;;;2.58;;
